Time,TemperatureF,DewpointF,PressureIn,WindDirection,WindDirectionDegrees,WindSpeedMPH,WindSpeedGustMPH,Humidity,HourlyPrecipIn,Conditions,Clouds,dailyrainin,SolarRadiationWatts/m^2,SoftwareType,DateUTC
2013-09-27 00:05:00,81.6,77.0,29.87,NW,306,0.0,-999.0,86,-99.99,,,0.26,0,weatherlink.com 1.10,2013-09-27 04:05:00,
2013-09-27 00:20:00,81.5,77.0,29.87,NW,306,0.0,-999.0,86,-99.99,,,0.00,0,weatherlink.com 1.10,2013-09-27 04:20:00,
2013-09-27 00:35:00,81.3,77.0,29.87,NW,306,0.0,-999.0,87,-99.99,,,0.00,0,weatherlink.com 1.10,2013-09-27 04:35:00,
2013-09-27 00:50:00,81.0,77.0,29.87,NW,306,0.0,-999.0,87,-99.99,,,0.00,0,weatherlink.com 1.10,2013-09-27 04:50:00,
2013-09-27 01:05:00,80.9,77.0,29.87,NW,306,0.0,-999.0,87,-99.99,,,0.00,0,weatherlink.com 1.10,2013-09-27 05:05:00,
2013-09-27 01:20:00,80.7,77.0,29.87,NW,306,0.0,-999.0,88,-99.99,,,0.00,0,weatherlink.com 1.10,2013-09-27 05:20:00,
2013-09-27 01:35:00,80.2,76.0,29.86,NW,306,0.0,-999.0,88,-99.99,,,0.00,0,weatherlink.com 1.10,2013-09-27 05:35:00,
2013-09-27 01:50:00,79.9,77.0,29.86,NW,306,0.0,-999.0,89,-99.99,,,0.00,0,weatherlink.com 1.10,2013-09-27 05:50:00,
2013-09-27 02:05:00,79.6,76.0,29.86,NW,306,0.0,-999.0,89,-99.99,,,0.00,0,weatherlink.com 1.10,2013-09-27 06:05:00,
2013-09-27 02:20:00,79.6,77.0,29.86,North,355,0.0,-999.0,90,-99.99,,,0.00,0,weatherlink.com 1.10,2013-09-27 06:20:00,
2013-09-27 02:35:00,79.4,75.0,29.86,NNE,32,0.0,-999.0,87,-99.99,,,0.00,0,weatherlink.com 1.10,2013-09-27 06:35:00,
2013-09-27 02:50:00,78.9,74.0,29.86,NE,34,0.0,-999.0,86,-99.99,,,0.00,0,weatherlink.com 1.10,2013-09-27 06:50:00,
2013-09-27 03:05:00,78.4,74.0,29.85,NE,51,0.0,-999.0,86,-99.99,,,0.00,0,weatherlink.com 1.10,2013-09-27 07:05:00,
2013-09-27 03:20:00,78.0,74.0,29.84,NE,53,0.0,-999.0,87,-99.99,,,0.00,0,weatherlink.com 1.10,2013-09-27 07:20:00,
2013-09-27 03:35:00,77.6,74.0,29.84,NE,42,0.0,-999.0,88,-99.99,,,0.00,0,weatherlink.com 1.10,2013-09-27 07:35:00,
2013-09-27 03:50:00,77.3,74.0,29.85,NE,46,0.0,-999.0,88,-99.99,,,0.00,0,weatherlink.com 1.10,2013-09-27 07:50:00,
2013-09-27 04:05:00,77.0,74.0,29.85,NE,46,0.0,-999.0,89,-99.99,,,0.00,0,weatherlink.com 1.10,2013-09-27 08:05:00,
2013-09-27 04:20:00,76.7,74.0,29.85,NE,46,0.0,-999.0,90,-99.99,,,0.00,0,weatherlink.com 1.10,2013-09-27 08:20:00,
2013-09-27 04:35:00,76.5,74.0,29.85,NE,46,0.0,-999.0,91,-99.99,,,0.00,0,weatherlink.com 1.10,2013-09-27 08:35:00,
2013-09-27 04:50:00,76.4,74.0,29.85,NE,46,0.0,-999.0,91,-99.99,,,0.00,0,weatherlink.com 1.10,2013-09-27 08:50:00,
2013-09-27 05:05:00,76.4,74.0,29.85,NE,46,0.0,-999.0,91,-99.99,,,0.00,0,weatherlink.com 1.10,2013-09-27 09:05:00,
2013-09-27 05:20:00,76.3,73.0,29.86,NE,46,0.0,-999.0,90,-99.99,,,0.00,0,weatherlink.com 1.10,2013-09-27 09:20:00,
2013-09-27 05:35:00,76.1,73.0,29.86,NE,46,0.0,-999.0,90,-99.99,,,0.00,0,weatherlink.com 1.10,2013-09-27 09:35:00,
2013-09-27 05:50:00,76.0,73.0,29.85,NE,46,0.0,-999.0,91,-99.99,,,0.00,0,weatherlink.com 1.10,2013-09-27 09:50:00,
2013-09-27 06:05:00,75.6,73.0,29.86,ENE,57,0.0,-999.0,91,-99.99,,,0.00,0,weatherlink.com 1.10,2013-09-27 10:05:00,
2013-09-27 06:20:00,75.5,73.0,29.86,ENE,57,0.0,-999.0,91,-99.99,,,0.00,0,weatherlink.com 1.10,2013-09-27 10:20:00,
2013-09-27 06:35:00,75.5,73.0,29.87,ENE,57,0.0,-999.0,91,-99.99,,,0.00,0,weatherlink.com 1.10,2013-09-27 10:35:00,
2013-09-27 06:50:00,75.3,73.0,29.87,ENE,57,0.0,-999.0,91,-99.99,,,0.00,0,weatherlink.com 1.10,2013-09-27 10:50:00,
2013-09-27 07:05:00,75.1,73.0,29.87,ENE,57,0.0,-999.0,92,-99.99,,,0.00,0,weatherlink.com 1.10,2013-09-27 11:05:00,
2013-09-27 07:20:00,74.9,73.0,29.87,NNE,13,0.0,-999.0,93,-99.99,,,0.00,5,weatherlink.com 1.10,2013-09-27 11:20:00,
2013-09-27 07:35:00,74.8,73.0,29.88,East,89,0.0,-999.0,93,-99.99,,,0.00,12,weatherlink.com 1.10,2013-09-27 11:35:00,
2013-09-27 07:50:00,74.8,73.0,29.89,East,80,0.0,-999.0,94,-99.99,,,0.00,23,weatherlink.com 1.10,2013-09-27 11:50:00,
2013-09-27 08:05:00,74.9,73.0,29.89,NE,43,0.0,-999.0,94,-99.99,,,0.00,35,weatherlink.com 1.10,2013-09-27 12:05:00,
2013-09-27 08:20:00,75.1,73.0,29.89,East,84,0.0,-999.0,94,-99.99,,,0.00,47,weatherlink.com 1.10,2013-09-27 12:20:00,
2013-09-27 08:35:00,75.7,74.0,29.90,ENE,76,0.0,-999.0,93,-99.99,,,0.00,63,weatherlink.com 1.10,2013-09-27 12:35:00,
2013-09-27 08:50:00,76.4,74.0,29.90,ENE,65,0.0,-999.0,92,-99.99,,,0.00,88,weatherlink.com 1.10,2013-09-27 12:50:00,
2013-09-27 09:05:00,77.4,74.0,29.91,East,81,0.0,-999.0,90,-99.99,,,0.00,357,weatherlink.com 1.10,2013-09-27 13:05:00,
2013-09-27 09:20:00,78.5,75.0,29.91,East,87,0.0,-999.0,88,-99.99,,,0.00,279,weatherlink.com 1.10,2013-09-27 13:20:00,
2013-09-27 09:35:00,79.0,75.0,29.91,ENE,63,0.0,-999.0,87,-99.99,,,0.00,397,weatherlink.com 1.10,2013-09-27 13:35:00,
2013-09-27 09:50:00,79.6,75.0,29.91,ENE,59,0.0,-999.0,86,-99.99,,,0.00,448,weatherlink.com 1.10,2013-09-27 13:50:00,
2013-09-27 10:05:00,80.7,76.0,29.91,ENE,66,0.0,-999.0,85,-99.99,,,0.00,529,weatherlink.com 1.10,2013-09-27 14:05:00,
2013-09-27 10:20:00,81.8,76.0,29.91,ENE,65,0.0,-999.0,83,-99.99,,,0.00,561,weatherlink.com 1.10,2013-09-27 14:20:00,
2013-09-27 10:35:00,82.8,76.0,29.92,NE,48,0.0,-999.0,80,-99.99,,,0.00,571,weatherlink.com 1.10,2013-09-27 14:35:00,
2013-09-27 10:50:00,83.5,76.0,29.91,ENE,76,0.0,-999.0,79,-99.99,,,0.00,626,weatherlink.com 1.10,2013-09-27 14:50:00,
2013-09-27 11:05:00,84.6,77.0,29.91,East,86,0.0,-999.0,77,-99.99,,,0.00,659,weatherlink.com 1.10,2013-09-27 15:05:00,
2013-09-27 11:20:00,85.6,76.0,29.91,WNW,294,0.0,-999.0,73,-99.99,,,0.00,694,weatherlink.com 1.10,2013-09-27 15:20:00,
2013-09-27 11:35:00,86.8,76.0,29.91,WNW,288,0.0,-999.0,69,-99.99,,,0.00,724,weatherlink.com 1.10,2013-09-27 15:35:00,
2013-09-27 11:50:00,88.0,76.0,29.91,NE,54,0.0,-999.0,67,-99.99,,,0.00,768,weatherlink.com 1.10,2013-09-27 15:50:00,
2013-09-27 12:05:00,88.6,75.0,29.91,WSW,252,0.0,-999.0,65,-99.99,,,0.00,773,weatherlink.com 1.10,2013-09-27 16:05:00,
2013-09-27 12:20:00,88.6,78.0,29.91,WNW,298,0.0,-999.0,70,-99.99,,,0.00,795,weatherlink.com 1.10,2013-09-27 16:20:00,
2013-09-27 12:35:00,89.0,77.0,29.90,NW,308,0.0,-999.0,67,-99.99,,,0.00,803,weatherlink.com 1.10,2013-09-27 16:35:00,
2013-09-27 12:50:00,89.0,77.0,29.90,WNW,300,0.0,-999.0,68,-99.99,,,0.00,814,weatherlink.com 1.10,2013-09-27 16:50:00,
2013-09-27 13:05:00,88.8,77.0,29.89,WNW,299,1.0,-999.0,69,-99.99,,,0.00,821,weatherlink.com 1.10,2013-09-27 17:05:00,
2013-09-27 13:20:00,88.2,77.0,29.89,NW,319,0.0,-999.0,70,-99.99,,,0.00,824,weatherlink.com 1.10,2013-09-27 17:20:00,
2013-09-27 13:35:00,87.7,77.0,29.89,NW,321,0.0,-999.0,70,-99.99,,,0.00,821,weatherlink.com 1.10,2013-09-27 17:35:00,
2013-09-27 13:50:00,87.5,77.0,29.88,NNW,346,0.0,-999.0,70,-99.99,,,0.00,814,weatherlink.com 1.10,2013-09-27 17:50:00,
2013-09-27 14:05:00,88.1,77.0,29.88,WNW,302,0.0,-999.0,70,-99.99,,,0.00,803,weatherlink.com 1.10,2013-09-27 18:05:00,
2013-09-27 14:20:00,88.7,75.0,29.87,North,350,0.0,-999.0,65,-99.99,,,0.00,791,weatherlink.com 1.10,2013-09-27 18:20:00,
2013-09-27 14:35:00,88.8,76.0,29.86,NE,36,0.0,-999.0,66,-99.99,,,0.00,770,weatherlink.com 1.10,2013-09-27 18:35:00,
2013-09-27 14:50:00,88.7,75.0,29.86,North,350,0.0,-999.0,65,-99.99,,,0.00,752,weatherlink.com 1.10,2013-09-27 18:50:00,
2013-09-27 15:05:00,88.8,76.0,29.86,NNW,331,1.0,-999.0,65,-99.99,,,0.00,721,weatherlink.com 1.10,2013-09-27 19:05:00,
2013-09-27 15:20:00,88.5,76.0,29.86,NW,317,0.0,-999.0,66,-99.99,,,0.00,694,weatherlink.com 1.10,2013-09-27 19:20:00,
2013-09-27 15:35:00,88.9,75.0,29.85,North,360,1.0,-999.0,64,-99.99,,,0.00,659,weatherlink.com 1.10,2013-09-27 19:35:00,
2013-09-27 15:50:00,88.4,75.0,29.85,NW,305,0.0,-999.0,64,-99.99,,,0.00,622,weatherlink.com 1.10,2013-09-27 19:50:00,
2013-09-27 16:05:00,88.4,75.0,29.85,North,5,1.0,-999.0,64,-99.99,,,0.00,589,weatherlink.com 1.10,2013-09-27 20:05:00,
2013-09-27 16:20:00,88.4,73.0,29.85,WNW,288,0.0,-999.0,61,-99.99,,,0.00,541,weatherlink.com 1.10,2013-09-27 20:20:00,
2013-09-27 16:35:00,88.2,74.0,29.85,West,272,0.0,-999.0,63,-99.99,,,0.00,497,weatherlink.com 1.10,2013-09-27 20:35:00,
2013-09-27 16:50:00,87.8,74.0,29.85,West,275,1.0,-999.0,63,-99.99,,,0.00,448,weatherlink.com 1.10,2013-09-27 20:50:00,
2013-09-27 17:05:00,87.4,74.0,29.85,NNW,331,0.0,-999.0,64,-99.99,,,0.00,399,weatherlink.com 1.10,2013-09-27 21:05:00,
2013-09-27 17:20:00,86.9,73.0,29.86,NNW,338,0.0,-999.0,64,-99.99,,,0.00,345,weatherlink.com 1.10,2013-09-27 21:20:00,
2013-09-27 17:35:00,87.1,74.0,29.86,NW,314,1.0,-999.0,65,-99.99,,,0.00,294,weatherlink.com 1.10,2013-09-27 21:35:00,
2013-09-27 17:50:00,86.5,74.0,29.86,NNW,330,0.0,-999.0,67,-99.99,,,0.00,239,weatherlink.com 1.10,2013-09-27 21:50:00,
2013-09-27 18:05:00,86.5,75.0,29.86,NE,46,0.0,-999.0,68,-99.99,,,0.00,183,weatherlink.com 1.10,2013-09-27 22:05:00,
2013-09-27 18:20:00,84.3,74.0,29.86,WNW,284,0.0,-999.0,71,-99.99,,,0.00,30,weatherlink.com 1.10,2013-09-27 22:20:00,
2013-09-27 18:35:00,83.2,74.0,29.86,NNW,334,0.0,-999.0,73,-99.99,,,0.00,32,weatherlink.com 1.10,2013-09-27 22:35:00,
2013-09-27 18:50:00,82.7,74.0,29.86,NNW,342,0.0,-999.0,75,-99.99,,,0.00,23,weatherlink.com 1.10,2013-09-27 22:50:00,
2013-09-27 19:05:00,82.0,73.0,29.87,WNW,303,0.0,-999.0,75,-99.99,,,0.00,12,weatherlink.com 1.10,2013-09-27 23:05:00,
2013-09-27 19:20:00,81.4,74.0,29.87,WNW,298,0.0,-999.0,77,-99.99,,,0.00,0,weatherlink.com 1.10,2013-09-27 23:20:00,
2013-09-27 19:35:00,81.0,74.0,29.88,NNW,347,0.0,-999.0,79,-99.99,,,0.00,0,weatherlink.com 1.10,2013-09-27 23:35:00,
2013-09-27 19:50:00,80.5,74.0,29.88,WNW,303,0.0,-999.0,80,-99.99,,,0.00,0,weatherlink.com 1.10,2013-09-27 23:50:00,
2013-09-27 20:05:00,80.3,74.0,29.88,WNW,303,0.0,-999.0,80,-99.99,,,0.00,0,weatherlink.com 1.10,2013-09-28 00:05:00,
2013-09-27 20:20:00,80.1,74.0,29.88,NW,304,0.0,-999.0,81,-99.99,,,0.00,0,weatherlink.com 1.10,2013-09-28 00:20:00,
2013-09-27 20:35:00,79.7,74.0,29.89,NW,304,0.0,-999.0,82,-99.99,,,0.00,0,weatherlink.com 1.10,2013-09-28 00:35:00,
2013-09-27 20:50:00,79.3,74.0,29.89,NW,304,0.0,-999.0,83,-99.99,,,0.00,0,weatherlink.com 1.10,2013-09-28 00:50:00,
2013-09-27 21:05:00,78.8,73.0,29.90,NW,304,0.0,-999.0,83,-99.99,,,0.00,0,weatherlink.com 1.10,2013-09-28 01:05:00,
2013-09-27 21:20:00,78.3,73.0,29.90,NW,304,0.0,-999.0,84,-99.99,,,0.00,0,weatherlink.com 1.10,2013-09-28 01:20:00,
2013-09-27 21:35:00,77.8,72.0,29.91,NW,304,0.0,-999.0,83,-99.99,,,0.00,0,weatherlink.com 1.10,2013-09-28 01:35:00,
2013-09-27 21:50:00,77.5,72.0,29.91,NW,304,0.0,-999.0,83,-99.99,,,0.00,0,weatherlink.com 1.10,2013-09-28 01:50:00,
2013-09-27 22:05:00,77.3,72.0,29.91,NW,304,0.0,-999.0,83,-99.99,,,0.00,0,weatherlink.com 1.10,2013-09-28 02:05:00,
2013-09-27 22:20:00,76.9,71.0,29.91,NW,304,0.0,-999.0,83,-99.99,,,0.00,0,weatherlink.com 1.10,2013-09-28 02:20:00,
2013-09-27 22:35:00,76.6,72.0,29.92,NW,304,0.0,-999.0,84,-99.99,,,0.00,0,weatherlink.com 1.10,2013-09-28 02:35:00,
2013-09-27 22:50:00,76.2,71.0,29.93,NW,304,0.0,-999.0,84,-99.99,,,0.00,0,weatherlink.com 1.10,2013-09-28 02:50:00,
2013-09-27 23:05:00,76.1,71.0,29.93,NW,304,0.0,-999.0,84,-99.99,,,0.00,0,weatherlink.com 1.10,2013-09-28 03:05:00,
2013-09-27 23:20:00,76.6,72.0,29.92,NE,36,0.0,-999.0,84,-99.99,,,0.00,0,weatherlink.com 1.10,2013-09-28 03:20:00,
2013-09-27 23:35:00,76.8,72.0,29.93,NE,38,0.0,-999.0,84,-99.99,,,0.00,0,weatherlink.com 1.10,2013-09-28 03:35:00,
2013-09-27 23:50:00,76.7,72.0,29.93,NE,40,0.0,-999.0,84,-99.99,,,0.00,0,weatherlink.com 1.10,2013-09-28 03:50:00,